Terminal Aerodrome Forecast
Issued by NWS

Home | Current Version | Previous Version | Text Only | Print | Product List | Glossary On
Versions: 1 2 3 4 5 6 7 8 9 10 11 12 13 14 15 16 17 18 19 20 21
000
FTUS45 KGGW 122330
TAFSDY
TAF
KSDY 122330Z 1300/1324 26012KT P6SM FEW200
     FM130300 30009KT P6SM SCT150
     FM130600 VRB06KT P6SM -SHRA BKN090
     FM131200 26010G18KT P6SM BKN100=

USA.gov is the U.S. government's official web portal to all federal, state and local government web resources and services.